createdAt,value
2018-11-23T00:04:09.350Z,101429.86
2018-11-23T00:09:22.698Z,101467.52
2018-11-23T00:14:36.057Z,101480.97
2018-11-23T00:19:49.459Z,101436.17
2018-11-23T00:25:02.811Z,101439.70
2018-11-23T00:30:20.687Z,101451.73
2018-11-23T00:35:34.034Z,101453.07
2018-11-23T00:40:47.448Z,101485.82
2018-11-23T00:46:00.817Z,101463.73
2018-11-23T00:51:14.252Z,101447.02
2018-11-23T00:56:27.629Z,101486.64
2018-11-23T01:02:00.347Z,101443.01
2018-11-23T01:07:13.831Z,101484.98
2018-11-23T01:12:27.268Z,101489.74
2018-11-23T01:17:40.659Z,101473.44
2018-11-23T01:22:54.745Z,101437.67
2018-11-23T01:28:08.111Z,101472.47
2018-11-23T01:33:21.472Z,101440.30
2018-11-23T01:38:34.850Z,101484.17
2018-11-23T01:43:48.236Z,101479.56
2018-11-23T01:49:01.617Z,101480.95
2018-11-23T01:54:15.000Z,101465.83
2018-11-23T01:59:28.372Z,101465.67
2018-11-23T02:04:41.756Z,101452.02
2018-11-23T02:09:55.216Z,101462.17
2018-11-23T02:15:13.103Z,101471.26
2018-11-23T02:20:26.484Z,101433.82
2018-11-23T02:25:39.855Z,101472.58
2018-11-23T02:30:53.224Z,101438.39
2018-11-23T02:36:07.670Z,101474.36
2018-11-23T02:41:21.018Z,101474.13
2018-11-23T02:46:34.365Z,101444.90
2018-11-23T02:51:48.519Z,101429.97
2018-11-23T02:57:01.919Z,101435.98
2018-11-23T03:02:15.290Z,101447.39
2018-11-23T03:07:28.677Z,101426.22
2018-11-23T03:12:42.457Z,101435.70
2018-11-23T03:17:55.818Z,101420.33
2018-11-23T03:23:09.176Z,101460.55
2018-11-23T03:28:22.553Z,101428.33
2018-11-23T03:33:35.931Z,101410.63
2018-11-23T03:38:49.508Z,101421.44
2018-11-23T03:44:02.936Z,101452.61
2018-11-23T03:49:16.348Z,101412.18
2018-11-23T03:54:29.712Z,101451.67
2018-11-23T03:59:43.099Z,101436.91
2018-11-23T04:04:56.818Z,101403.35
2018-11-23T04:10:11.819Z,101400.63
2018-11-23T04:15:25.219Z,101407.73
2018-11-23T04:20:38.599Z,101449.44
2018-11-23T04:25:51.974Z,101419.61
2018-11-23T04:31:05.765Z,101421.78
2018-11-23T04:36:19.151Z,101448.02
2018-11-23T04:41:32.836Z,101446.67
2018-11-23T04:46:46.475Z,101439.95
2018-11-23T04:51:59.828Z,101414.91
2018-11-23T04:57:13.214Z,101413.14
2018-11-23T05:02:26.769Z,101408.73
2018-11-23T05:07:40.517Z,101406.16
2018-11-23T05:12:53.892Z,101397.50
2018-11-23T05:18:07.251Z,101416.66
2018-11-23T05:23:20.618Z,101402.50
2018-11-23T05:28:33.992Z,101395.91
2018-11-23T05:33:47.621Z,101444.51
2018-11-23T05:39:00.613Z,101440.40
2018-11-23T05:44:13.647Z,101430.26
2018-11-23T05:49:27.047Z,101386.91
2018-11-23T05:54:40.397Z,101425.72
2018-11-23T05:59:53.757Z,101413.86
2018-11-23T06:05:07.788Z,101391.90
2018-11-23T06:10:21.625Z,101393.20
2018-11-23T06:15:34.998Z,101385.52
2018-11-23T06:20:48.351Z,101422.60
2018-11-23T06:26:22.907Z,101396.77
2018-11-23T06:31:36.321Z,101413.70
2018-11-23T06:36:49.689Z,101420.50
2018-11-23T06:42:03.047Z,101387.16
2018-11-23T06:47:16.393Z,101428.19
2018-11-23T06:52:29.784Z,101432.20
2018-11-23T06:57:43.137Z,101439.80
2018-11-23T07:02:59.220Z,101401.23
2018-11-23T07:08:10.945Z,101436.62
2018-11-23T07:13:24.293Z,101430.45
2018-11-23T07:18:37.693Z,101412.67
2018-11-23T07:23:51.067Z,101397.41
2018-11-23T07:29:04.947Z,101424.64
2018-11-23T07:34:18.311Z,101432.05
2018-11-23T07:40:09.968Z,101391.30
2018-11-23T07:45:23.385Z,101427.27
2018-11-23T07:50:36.814Z,101425.20
2018-11-23T07:55:50.177Z,101416.42
2018-11-23T08:01:03.912Z,101389.63
2018-11-23T08:06:17.295Z,101396.08
2018-11-23T08:11:30.716Z,101415.23
2018-11-23T08:16:44.068Z,101426.88
2018-11-23T08:21:57.540Z,101431.52
2018-11-23T08:27:10.909Z,101393.91
2018-11-23T08:32:24.340Z,101400.48
2018-11-23T08:37:37.972Z,101394.98
2018-11-23T08:42:52.057Z,101384.11
2018-11-23T08:48:05.849Z,101389.86
2018-11-23T08:53:19.303Z,101377.58
2018-11-23T08:58:34.186Z,101369.17
2018-11-23T09:03:46.100Z,101403.72
2018-11-23T09:08:59.447Z,101360.62
2018-11-23T09:14:12.822Z,101355.57
2018-11-23T09:19:26.206Z,101384.34
2018-11-23T09:24:20.443Z,101391.97
2018-11-23T09:29:14.692Z,101383.94
2018-11-23T09:34:08.885Z,101388.86
2018-11-23T09:39:04.788Z,101392.78
2018-11-23T09:43:59.019Z,101383.60
2018-11-23T09:48:53.242Z,101382.66
2018-11-23T09:53:47.461Z,101378.38
2018-11-23T09:58:43.608Z,101374.39
2018-11-23T10:03:35.997Z,101371.81
2018-11-23T10:08:33.501Z,101374.51
2018-11-23T10:13:24.454Z,101369.75
2018-11-23T10:18:18.689Z,101355.08
2018-11-23T10:23:12.953Z,101358.75
2018-11-23T10:28:07.250Z,101349.23
2018-11-23T10:33:04.268Z,101341.71
2018-11-23T10:37:59.755Z,101338.95
2018-11-23T10:42:53.960Z,101331.75
2018-11-23T10:47:48.772Z,101326.95
2018-11-23T10:52:43.008Z,101310.52
2018-11-23T10:57:37.258Z,101304.02
2018-11-23T11:02:44.325Z,101286.60
2018-11-23T11:07:38.526Z,101275.88
2018-11-23T11:12:32.757Z,101277.19
2018-11-23T11:17:27.016Z,101276.33
2018-11-23T11:22:21.258Z,101269.53
2018-11-23T11:27:15.473Z,101247.25
2018-11-23T11:32:09.721Z,101252.89
2018-11-23T11:37:03.944Z,101245.33
2018-11-23T11:41:58.140Z,101245.00
2018-11-23T11:46:52.415Z,101245.56
2018-11-23T11:51:46.585Z,101223.47
2018-11-23T11:56:40.871Z,101212.28
2018-11-23T12:01:35.068Z,101206.41
2018-11-23T12:06:29.286Z,101208.95
2018-11-23T12:11:23.491Z,101204.06
2018-11-23T12:16:17.815Z,101200.69
2018-11-23T12:21:12.127Z,101189.66
2018-11-23T12:26:06.547Z,101175.53
2018-11-23T12:31:00.779Z,101174.91
2018-11-23T12:35:55.042Z,101175.11
2018-11-23T12:40:49.271Z,101170.91
2018-11-23T12:45:43.513Z,101161.38
2018-11-23T12:50:37.763Z,101150.97
2018-11-23T12:55:32.048Z,101138.56
2018-11-23T13:00:27.470Z,101135.95
2018-11-23T13:05:22.629Z,101128.47
2018-11-23T13:10:16.931Z,101127.11
2018-11-23T13:15:11.177Z,101128.52
2018-11-23T13:20:12.105Z,101116.73
2018-11-23T13:25:09.981Z,101118.87
2018-11-23T13:30:04.505Z,101115.84
2018-11-23T13:34:58.747Z,101114.11
2018-11-23T13:39:53.062Z,101109.76
2018-11-23T13:44:47.276Z,101096.96
2018-11-23T13:49:41.647Z,101091.03
2018-11-23T13:54:35.856Z,101091.15
2018-11-23T13:59:30.156Z,101082.98
2018-11-23T14:04:24.406Z,101077.37
2018-11-23T14:09:19.028Z,101072.97
2018-11-23T14:14:13.240Z,101070.14
2018-11-23T14:19:07.486Z,101063.48
2018-11-23T14:24:02.195Z,101055.01
2018-11-23T14:28:56.397Z,101049.15
2018-11-23T14:33:50.665Z,101041.89
2018-11-23T14:38:44.867Z,101039.38
2018-11-23T14:44:14.873Z,101042.00
2018-11-23T14:49:08.156Z,101051.00
2018-11-23T14:54:01.425Z,101055.00
2018-11-23T14:58:54.730Z,101052.00
2018-11-23T15:03:48.025Z,101052.00
2018-11-23T15:08:41.283Z,101050.00
2018-11-23T15:13:34.565Z,101041.00
2018-11-23T15:18:27.958Z,101038.00
2018-11-23T15:23:21.347Z,101039.00
2018-11-23T15:28:15.074Z,101032.00
2018-11-23T15:33:09.760Z,101031.00
2018-11-23T15:38:06.057Z,101029.00
2018-11-23T15:42:58.183Z,101030.00
2018-11-23T15:47:51.695Z,101014.00
2018-11-23T15:52:45.628Z,101014.00
2018-11-23T15:57:39.138Z,101021.00
2018-11-23T16:02:32.455Z,101016.00
2018-11-23T16:07:25.712Z,101021.00
2018-11-23T16:12:19.028Z,101029.00
2018-11-23T16:17:12.306Z,101023.00
2018-11-23T16:22:05.587Z,101016.00
2018-11-23T16:26:58.896Z,101017.00
2018-11-23T16:31:52.183Z,101019.00
2018-11-23T16:36:45.498Z,101018.00
2018-11-23T16:41:38.839Z,101016.00
2018-11-23T16:46:32.114Z,101011.00
2018-11-23T16:51:25.416Z,101006.00
2018-11-23T16:56:18.724Z,101013.00
2018-11-23T17:01:12.044Z,101008.00
2018-11-23T17:06:05.666Z,101008.00
2018-11-23T17:10:58.905Z,101003.00
2018-11-23T17:15:52.317Z,101001.00
2018-11-23T17:20:45.591Z,101006.00
2018-11-23T17:25:38.882Z,101024.00
2018-11-23T17:30:32.899Z,101015.00
2018-11-23T17:35:26.558Z,101014.00
2018-11-23T17:40:21.408Z,101016.00
2018-11-23T17:45:18.157Z,101016.00
2018-11-23T17:50:15.060Z,101007.00
2018-11-23T17:55:09.455Z,100994.00
2018-11-23T18:00:03.545Z,100990.00
2018-11-23T18:04:56.825Z,100977.00
2018-11-23T18:09:50.103Z,100971.00
2018-11-23T18:14:43.448Z,100971.00
2018-11-23T18:19:36.740Z,100962.00
2018-11-23T18:24:30.042Z,100955.00
2018-11-23T18:29:23.316Z,100958.00
2018-11-23T18:34:16.614Z,100950.00
2018-11-23T18:39:09.936Z,100950.00
2018-11-23T18:44:03.254Z,100943.00
2018-11-23T18:48:56.501Z,100932.00
2018-11-23T18:53:49.808Z,100938.00
2018-11-23T18:58:43.087Z,100946.00
2018-11-23T19:03:36.369Z,100946.00
2018-11-23T19:08:29.653Z,100947.00
2018-11-23T19:13:22.954Z,100945.00
2018-11-23T19:18:16.280Z,100936.00
2018-11-23T19:23:09.573Z,100936.00
2018-11-23T19:28:02.830Z,100933.00
2018-11-23T19:32:56.106Z,100933.00
2018-11-23T19:37:49.425Z,100925.00
2018-11-23T19:42:43.646Z,100919.00
2018-11-23T19:47:36.993Z,100913.00
2018-11-23T19:52:30.238Z,100907.00
2018-11-23T19:57:23.539Z,100910.00
2018-11-23T20:02:16.825Z,100910.00
2018-11-23T20:07:10.144Z,100914.00
2018-11-23T20:12:03.443Z,100902.00
2018-11-23T20:16:56.782Z,100902.00
2018-11-23T20:21:50.122Z,100900.00
2018-11-23T20:26:43.408Z,100890.00
2018-11-23T20:31:36.715Z,100873.00
2018-11-23T20:36:30.005Z,100869.00
2018-11-23T20:41:23.300Z,100857.00
2018-11-23T20:46:16.569Z,100846.00
2018-11-23T20:51:09.889Z,100853.00
2018-11-23T20:56:03.244Z,100844.00
2018-11-23T21:00:56.549Z,100850.00
2018-11-23T21:05:49.862Z,100858.00
2018-11-23T21:10:43.082Z,100862.00
2018-11-23T21:15:36.365Z,100856.00
2018-11-23T21:20:29.658Z,100846.00
2018-11-23T21:25:22.974Z,100844.00
2018-11-23T21:30:20.910Z,100827.00
2018-11-23T21:35:14.378Z,100823.00
2018-11-23T21:40:12.241Z,100820.00
2018-11-23T21:45:08.772Z,100813.00
2018-11-23T21:50:02.130Z,100810.00
2018-11-23T21:54:55.452Z,100805.00
2018-11-23T21:59:48.798Z,100794.00
2018-11-23T22:04:42.116Z,100800.00
2018-11-23T22:09:35.436Z,100790.00
2018-11-23T22:14:28.724Z,100787.00
2018-11-23T22:19:21.980Z,100788.00
2018-11-23T22:24:15.287Z,100784.00
2018-11-23T22:29:08.595Z,100774.00
2018-11-23T22:34:01.879Z,100775.00
2018-11-23T22:38:55.174Z,100763.00
2018-11-23T22:43:48.442Z,100769.00
2018-11-23T22:48:41.747Z,100767.00
2018-11-23T22:53:35.062Z,100760.00
2018-11-23T22:58:29.415Z,100759.00
2018-11-23T23:03:21.620Z,100757.00
2018-11-23T23:08:14.923Z,100746.00
2018-11-23T23:13:08.215Z,100744.00
2018-11-23T23:18:01.579Z,100739.00
2018-11-23T23:22:55.696Z,100728.00
2018-11-23T23:27:49.055Z,100722.00
2018-11-23T23:32:42.618Z,100722.00
2018-11-23T23:37:36.051Z,100717.00
2018-11-23T23:42:29.399Z,100718.00
2018-11-23T23:47:22.774Z,100719.00
2018-11-23T23:52:16.170Z,100712.00
2018-11-23T23:57:09.500Z,100709.00
